createdAt,value
2019-04-05T00:01:23.546Z,10.07
2019-04-05T00:03:52.287Z,10.10
2019-04-05T00:06:20.778Z,10.07
2019-04-05T00:08:49.281Z,10.07
2019-04-05T00:11:18.064Z,10.10
2019-04-05T00:13:46.525Z,10.10
2019-04-05T00:16:14.996Z,10.02
2019-04-05T00:18:43.500Z,10.06
2019-04-05T00:21:11.978Z,10.10
2019-04-05T00:23:40.457Z,10.11
2019-04-05T00:26:09.202Z,10.06
2019-04-05T00:28:37.654Z,10.08
2019-04-05T00:31:06.135Z,10.11
2019-04-05T00:33:34.586Z,10.08
2019-04-05T00:36:03.075Z,10.06
2019-04-05T00:38:31.555Z,10.04
2019-04-05T00:41:00.045Z,10.05
2019-04-05T00:43:28.514Z,10.03
2019-04-05T00:45:57.087Z,10.00
2019-04-05T00:48:25.579Z,10.00
2019-04-05T00:50:54.050Z,9.94
2019-04-05T00:53:22.862Z,9.95
2019-04-05T00:55:51.405Z,10.01
2019-04-05T00:58:19.862Z,10.05
2019-04-05T01:00:48.353Z,10.03
2019-04-05T01:03:16.835Z,10.05
2019-04-05T01:05:45.638Z,10.09
2019-04-05T01:08:14.093Z,10.10
2019-04-05T01:10:42.594Z,10.10
2019-04-05T01:13:11.088Z,10.12
2019-04-05T01:15:41.041Z,10.11
2019-04-05T01:18:10.070Z,10.13
2019-04-05T01:20:38.561Z,10.09
2019-04-05T01:23:07.072Z,10.13
2019-04-05T01:25:36.569Z,10.14
2019-04-05T01:28:05.039Z,10.08
2019-04-05T01:30:33.517Z,9.98
2019-04-05T01:33:02.299Z,9.95
2019-04-05T01:35:30.805Z,10.00
2019-04-05T01:37:59.389Z,10.06
2019-04-05T01:40:28.553Z,10.10
2019-04-05T01:42:57.074Z,10.15
2019-04-05T01:45:25.553Z,10.19
2019-04-05T01:47:54.030Z,10.17
2019-04-05T01:50:22.516Z,10.13
2019-04-05T01:52:50.988Z,10.07
2019-04-05T01:55:19.480Z,10.12
2019-04-05T01:57:47.958Z,10.09
2019-04-05T02:00:16.715Z,10.02
2019-04-05T02:02:45.203Z,10.03
2019-04-05T02:05:13.693Z,10.01
2019-04-05T02:07:42.176Z,10.04
2019-04-05T02:10:10.713Z,10.02
2019-04-05T02:12:39.213Z,9.46
2019-04-05T02:15:07.675Z,9.98
2019-04-05T02:17:36.218Z,9.89
2019-04-05T02:20:05.331Z,9.87
2019-04-05T02:22:33.810Z,9.96
2019-04-05T02:25:02.560Z,10.05
2019-04-05T02:27:31.056Z,10.12
2019-04-05T02:29:59.514Z,10.15
2019-04-05T02:32:28.001Z,10.19
2019-04-05T02:34:56.487Z,10.15
2019-04-05T02:37:24.979Z,10.10
2019-04-05T02:39:53.467Z,10.10
2019-04-05T02:42:22.070Z,10.11
2019-04-05T02:44:50.545Z,10.05
2019-04-05T02:47:19.282Z,9.94
2019-04-05T02:49:47.740Z,9.94
2019-04-05T02:52:16.270Z,9.83
2019-04-05T02:54:44.928Z,9.86
2019-04-05T02:57:13.409Z,9.91
2019-04-05T02:59:41.868Z,9.92
2019-04-05T03:02:10.330Z,9.97
2019-04-05T03:04:38.864Z,9.98
2019-04-05T03:07:07.322Z,9.87
2019-04-05T03:09:35.890Z,9.80
2019-04-05T03:12:04.471Z,9.77
2019-04-05T03:14:33.004Z,9.74
2019-04-05T03:17:01.494Z,9.73
2019-04-05T03:19:31.259Z,9.74
2019-04-05T03:22:03.108Z,9.74
2019-04-05T03:24:31.640Z,9.79
2019-04-05T03:27:02.558Z,9.84
2019-04-05T03:29:31.056Z,9.90
2019-04-05T03:31:59.589Z,9.94
2019-04-05T03:34:28.164Z,9.89
2019-04-05T03:36:56.630Z,9.86
2019-04-05T03:39:25.170Z,9.88
2019-04-05T03:41:53.922Z,9.91
2019-04-05T03:44:23.357Z,9.88
2019-04-05T03:46:56.980Z,9.89
2019-04-05T03:49:22.544Z,9.80
2019-04-05T03:51:51.017Z,9.71
2019-04-05T03:54:19.466Z,9.76
2019-04-05T03:56:47.932Z,9.79
2019-04-05T03:59:16.403Z,9.81
2019-04-05T04:01:44.863Z,9.72
2019-04-05T04:04:13.346Z,9.67
2019-04-05T04:06:41.877Z,9.55
2019-04-05T04:09:10.357Z,9.70
2019-04-05T04:11:38.868Z,9.74
2019-04-05T04:14:07.546Z,9.81
2019-04-05T04:16:36.247Z,9.88
2019-04-05T04:19:04.752Z,9.95
2019-04-05T04:21:43.483Z,9.99
2019-04-05T04:24:11.995Z,10.02
2019-04-05T04:26:40.617Z,10.02
2019-04-05T04:29:09.101Z,10.03
2019-04-05T04:31:37.588Z,10.07
2019-04-05T04:34:06.684Z,10.10
2019-04-05T04:36:35.244Z,10.07
2019-04-05T04:39:04.970Z,10.10
2019-04-05T04:41:33.447Z,10.16
2019-04-05T04:44:02.022Z,10.18
2019-04-05T04:46:30.479Z,10.17
2019-04-05T04:48:58.991Z,10.21
2019-04-05T04:51:27.482Z,10.19
2019-04-05T04:53:56.063Z,10.19
2019-04-05T04:56:24.602Z,10.10
2019-04-05T04:58:53.181Z,10.05
2019-04-05T05:01:21.764Z,9.95
2019-04-05T05:03:50.241Z,9.91
2019-04-05T05:06:18.829Z,9.77
2019-04-05T05:08:47.319Z,9.75
2019-04-05T05:11:15.791Z,9.80
2019-04-05T05:13:44.270Z,9.79
2019-04-05T05:16:12.756Z,9.82
2019-04-05T05:18:41.227Z,9.89
2019-04-05T05:21:09.719Z,10.66
2019-04-05T05:23:38.209Z,10.94
2019-04-05T05:26:06.900Z,10.66
2019-04-05T05:28:35.567Z,10.37
2019-04-05T05:31:04.073Z,10.16
2019-04-05T05:33:32.593Z,9.98
2019-04-05T05:36:01.101Z,10.03
2019-04-05T05:38:30.098Z,10.04
2019-04-05T05:40:58.586Z,10.02
2019-04-05T05:43:27.099Z,9.97
2019-04-05T05:45:55.586Z,10.04
2019-04-05T05:48:24.084Z,10.15
2019-04-05T05:50:52.597Z,10.22
2019-04-05T05:53:21.120Z,10.21
2019-04-05T05:55:49.618Z,10.17
2019-04-05T05:58:18.411Z,10.19
2019-04-05T06:00:47.153Z,10.27
2019-04-05T06:03:16.687Z,10.33
2019-04-05T06:05:45.391Z,10.33
2019-04-05T06:08:13.875Z,10.34
2019-04-05T06:10:42.396Z,10.27
2019-04-05T06:13:11.178Z,10.18
2019-04-05T06:15:39.957Z,10.19
2019-04-05T06:18:11.924Z,10.24
2019-04-05T06:20:38.631Z,10.25
2019-04-05T06:23:07.403Z,10.26
2019-04-05T06:25:35.881Z,10.23
2019-04-05T06:28:04.362Z,10.26
2019-04-05T06:30:32.941Z,10.19
2019-04-05T06:33:01.424Z,10.15
2019-04-05T06:35:29.897Z,9.99
2019-04-05T06:37:58.364Z,9.91
2019-04-05T06:40:39.659Z,9.89
2019-04-05T06:42:57.332Z,9.92
2019-04-05T06:45:25.813Z,9.99
2019-04-05T06:47:54.547Z,9.99
2019-04-05T06:50:23.020Z,9.97
2019-04-05T06:52:51.520Z,9.98
2019-04-05T06:55:19.972Z,9.98
2019-04-05T06:57:48.469Z,10.09
2019-04-05T07:00:20.050Z,10.14
2019-04-05T07:02:48.537Z,10.13
2019-04-05T07:05:17.022Z,10.09
2019-04-05T07:07:45.499Z,10.16
2019-04-05T07:10:13.939Z,10.20
2019-04-05T07:12:42.468Z,10.24
2019-04-05T07:15:10.911Z,10.31
2019-04-05T07:17:39.472Z,10.33
2019-04-05T07:20:08.551Z,10.32
2019-04-05T07:22:39.453Z,10.31
2019-04-05T07:25:07.439Z,10.29
2019-04-05T07:27:35.956Z,10.33
2019-04-05T07:30:04.869Z,10.33
2019-04-05T07:32:33.333Z,10.38
2019-04-05T07:35:02.138Z,10.44
2019-04-05T07:37:30.624Z,10.49
2019-04-05T07:39:59.146Z,10.51
2019-04-05T07:42:27.609Z,10.44
2019-04-05T07:44:56.087Z,10.45
2019-04-05T07:47:24.541Z,10.44
2019-04-05T07:49:53.298Z,10.51
2019-04-05T07:52:21.775Z,10.60
2019-04-05T07:54:50.270Z,10.58
2019-04-05T07:57:18.753Z,10.62
2019-04-05T07:59:47.247Z,10.59
2019-04-05T08:02:15.765Z,10.49
2019-04-05T08:04:44.403Z,10.35
2019-04-05T08:07:13.476Z,10.55
2019-04-05T08:09:41.944Z,10.73
2019-04-05T08:12:10.403Z,10.80
2019-04-05T08:14:38.986Z,10.83
2019-04-05T08:17:07.456Z,10.92
2019-04-05T08:19:35.938Z,10.98
2019-04-05T08:22:04.487Z,10.95
2019-04-05T08:24:32.979Z,10.90
2019-04-05T08:27:01.449Z,10.86
2019-04-05T08:29:29.930Z,10.96
2019-04-05T08:31:58.420Z,11.08
2019-04-05T08:34:26.895Z,10.93
2019-04-05T08:36:55.369Z,10.63
2019-04-05T08:39:23.899Z,10.40
2019-04-05T08:41:52.376Z,10.38
2019-04-05T08:44:20.860Z,10.56
2019-04-05T08:46:49.361Z,10.66
2019-04-05T08:49:17.841Z,10.61
2019-04-05T08:51:46.315Z,10.67
2019-04-05T08:54:14.806Z,10.85
2019-04-05T08:56:43.290Z,10.98
2019-04-05T08:59:12.085Z,11.04
2019-04-05T09:01:40.578Z,11.05
2019-04-05T09:04:09.052Z,11.08
2019-04-05T09:06:37.583Z,10.92
2019-04-05T09:09:07.203Z,10.94
2019-04-05T09:11:35.987Z,10.89
2019-04-05T09:14:04.599Z,10.89
2019-04-05T09:16:33.084Z,10.97
2019-04-05T09:19:01.710Z,11.03
2019-04-05T09:21:30.234Z,11.16
2019-04-05T09:23:59.441Z,11.29
2019-04-05T09:26:28.052Z,11.40
2019-04-05T09:28:56.519Z,11.39
2019-04-05T09:31:25.590Z,11.24
2019-04-05T09:33:54.113Z,11.27
2019-04-05T09:36:22.656Z,11.01
2019-04-05T09:38:51.138Z,11.18
2019-04-05T09:41:19.644Z,11.35
2019-04-05T09:43:48.131Z,11.42
2019-04-05T09:46:16.616Z,11.58
2019-04-05T09:48:45.104Z,11.58
2019-04-05T09:51:13.698Z,11.72
2019-04-05T09:53:42.188Z,11.81
2019-04-05T09:56:10.680Z,11.88
2019-04-05T09:58:39.177Z,11.88
2019-04-05T10:01:07.666Z,11.85
2019-04-05T10:03:36.156Z,11.85
2019-04-05T10:06:04.912Z,11.85
2019-04-05T10:08:33.393Z,11.89
2019-04-05T10:11:02.095Z,11.84
2019-04-05T10:13:30.574Z,11.91
2019-04-05T10:15:59.043Z,11.97
2019-04-05T10:18:27.506Z,12.11
2019-04-05T10:20:55.972Z,12.16
2019-04-05T10:23:24.487Z,11.82
2019-04-05T10:25:52.986Z,11.77
2019-04-05T10:28:21.453Z,11.70
2019-04-05T10:30:51.972Z,11.56
2019-04-05T10:33:20.215Z,11.55
2019-04-05T10:35:48.724Z,11.64
2019-04-05T10:38:17.204Z,11.76
2019-04-05T10:40:45.700Z,11.84
2019-04-05T10:43:14.238Z,11.79
2019-04-05T10:45:42.723Z,11.91
2019-04-05T10:48:11.234Z,12.09
2019-04-05T10:50:39.738Z,12.27
2019-04-05T10:53:08.220Z,12.50
2019-04-05T10:55:36.758Z,12.66
2019-04-05T10:58:05.440Z,12.80
2019-04-05T11:00:33.955Z,12.83
2019-04-05T11:03:02.433Z,12.91
2019-04-05T11:05:31.010Z,13.12
2019-04-05T11:07:59.509Z,13.19
2019-04-05T11:10:28.014Z,13.28
2019-04-05T11:12:56.484Z,13.26
2019-04-05T11:15:24.963Z,13.02
2019-04-05T11:17:53.590Z,12.89
2019-04-05T11:20:22.817Z,13.05
2019-04-05T11:22:51.485Z,13.15
2019-04-05T11:25:20.786Z,13.17
2019-04-05T11:27:50.045Z,13.35
2019-04-05T11:30:35.783Z,13.59
2019-04-05T11:33:04.294Z,13.78
2019-04-05T11:35:32.796Z,13.89
2019-04-05T11:38:01.302Z,14.08
2019-04-05T11:40:29.771Z,14.34
2019-04-05T11:42:58.239Z,14.49
2019-04-05T11:45:26.723Z,14.51
2019-04-05T11:47:55.696Z,14.53
2019-04-05T11:50:34.526Z,14.53
2019-04-05T11:52:55.712Z,14.23
2019-04-05T11:55:24.207Z,14.07
2019-04-05T11:57:54.763Z,14.04
2019-04-05T12:00:28.378Z,14.00
2019-04-05T12:03:00.075Z,14.05
2019-04-05T12:05:28.868Z,14.15
2019-04-05T12:08:00.964Z,14.23
2019-04-05T12:10:27.634Z,14.34
2019-04-05T12:12:56.100Z,14.43
2019-04-05T12:15:24.589Z,14.45
2019-04-05T12:17:53.067Z,14.52
2019-04-05T12:20:21.541Z,14.60
2019-04-05T12:22:52.480Z,14.61
2019-04-05T12:25:20.267Z,14.70
2019-04-05T12:27:48.734Z,14.85
2019-04-05T12:30:19.947Z,14.96
2019-04-05T12:32:48.914Z,15.17
2019-04-05T12:35:21.389Z,15.33
2019-04-05T12:37:50.611Z,15.25
2019-04-05T12:40:18.315Z,15.18
2019-04-05T12:42:46.809Z,15.47
2019-04-05T12:45:15.642Z,15.68
2019-04-05T12:47:45.589Z,15.89
2019-04-05T12:50:15.324Z,16.27
2019-04-05T12:52:44.063Z,16.21
2019-04-05T12:55:12.532Z,15.92
2019-04-05T12:57:41.344Z,15.77
2019-04-05T13:00:13.217Z,15.83
2019-04-05T13:02:40.485Z,15.98
2019-04-05T13:05:08.972Z,16.15
2019-04-05T13:07:37.439Z,16.14
2019-04-05T13:10:06.212Z,16.21
2019-04-05T13:12:34.683Z,17.46
2019-04-05T13:15:11.728Z,18.48
2019-04-05T13:17:33.474Z,18.86
2019-04-05T13:20:01.958Z,18.98
2019-04-05T13:22:32.559Z,18.92
2019-04-05T13:25:00.661Z,18.72
2019-04-05T13:27:29.439Z,18.65
2019-04-05T13:29:57.914Z,18.66
2019-04-05T13:32:26.418Z,18.50
2019-04-05T13:34:55.852Z,18.70
2019-04-05T13:37:24.952Z,18.77
2019-04-05T13:39:53.427Z,18.35
2019-04-05T13:42:21.893Z,18.15
2019-04-05T13:44:50.362Z,17.56
2019-04-05T13:47:19.150Z,17.67
2019-04-05T13:49:47.655Z,16.92
2019-04-05T13:52:16.142Z,16.35
2019-04-05T13:54:44.639Z,16.35
2019-04-05T13:57:13.091Z,16.82
2019-04-05T13:59:44.464Z,16.48
2019-04-05T14:02:11.784Z,16.35
2019-04-05T14:04:40.244Z,16.38
2019-04-05T14:07:08.730Z,16.82
2019-04-05T14:09:38.490Z,16.75
2019-04-05T14:12:09.663Z,16.38
2019-04-05T14:14:39.436Z,16.14
2019-04-05T14:17:07.867Z,16.20
2019-04-05T14:19:36.432Z,15.93
2019-04-05T14:22:08.818Z,16.37
2019-04-05T14:24:35.095Z,16.88
2019-04-05T14:27:04.033Z,17.04
2019-04-05T14:29:33.333Z,16.88
2019-04-05T14:32:19.436Z,16.62
2019-04-05T14:34:32.489Z,16.07
2019-04-05T14:37:00.952Z,16.47
2019-04-05T14:39:29.432Z,17.08
2019-04-05T14:42:09.147Z,17.10
2019-04-05T14:44:28.338Z,17.05
2019-04-05T14:46:58.105Z,16.61
2019-04-05T14:49:30.258Z,16.60
2019-04-05T14:52:00.734Z,17.16
2019-04-05T14:54:30.186Z,17.50
2019-04-05T14:57:02.422Z,17.77
2019-04-05T14:59:28.309Z,17.23
2019-04-05T15:01:56.850Z,17.27
2019-04-05T15:04:25.327Z,17.63
2019-04-05T15:06:54.616Z,17.61
2019-04-05T15:09:25.544Z,17.80
2019-04-05T15:11:53.399Z,17.96
2019-04-05T15:14:21.893Z,17.62
2019-04-05T15:16:50.367Z,17.85
2019-04-05T15:19:19.157Z,17.50
2019-04-05T15:21:47.639Z,17.56
2019-04-05T15:24:17.147Z,17.69
2019-04-05T15:26:45.686Z,17.92
2019-04-05T15:29:14.179Z,17.80
2019-04-05T15:31:42.674Z,17.24
2019-04-05T15:34:11.134Z,16.88
2019-04-05T15:36:39.596Z,17.08
2019-04-05T15:39:08.918Z,17.44
2019-04-05T15:41:37.559Z,17.50
2019-04-05T15:44:06.098Z,17.89
2019-04-05T15:46:34.892Z,17.31
2019-04-05T15:49:03.382Z,16.07
2019-04-05T15:51:31.846Z,15.14
2019-04-05T15:54:01.399Z,14.71
2019-04-05T15:56:33.355Z,14.47
2019-04-05T15:59:03.597Z,14.43
2019-04-05T16:01:32.119Z,14.26
2019-04-05T16:04:02.820Z,14.09
2019-04-05T16:06:31.802Z,13.80
2019-04-05T16:09:00.343Z,13.68
2019-04-05T16:11:28.832Z,13.49
2019-04-05T16:13:57.607Z,13.32
2019-04-05T16:16:26.566Z,13.13
2019-04-05T16:18:55.067Z,13.04
2019-04-05T16:21:25.433Z,13.03
2019-04-05T16:23:53.982Z,13.13
2019-04-05T16:26:22.446Z,12.94
2019-04-05T16:28:50.927Z,12.88
2019-04-05T16:31:19.406Z,13.12
2019-04-05T16:33:47.914Z,12.99
2019-04-05T16:36:16.485Z,12.90
2019-04-05T16:38:44.982Z,12.86
2019-04-05T16:41:13.494Z,12.73
2019-04-05T16:43:42.086Z,12.72
2019-04-05T16:46:11.428Z,12.72
2019-04-05T16:48:39.927Z,12.78
2019-04-05T16:51:08.464Z,12.58
2019-04-05T16:53:38.605Z,12.51
2019-04-05T16:56:07.137Z,12.66
2019-04-05T16:58:35.624Z,12.67
2019-04-05T17:01:04.105Z,12.93
2019-04-05T17:03:32.902Z,14.53
2019-04-05T17:06:01.391Z,15.76
2019-04-05T17:08:29.872Z,15.16
2019-04-05T17:10:58.352Z,14.59
2019-04-05T17:13:26.837Z,14.01
2019-04-05T17:15:55.651Z,13.65
2019-04-05T17:18:24.186Z,13.21
2019-04-05T17:20:52.677Z,13.17
2019-04-05T17:23:21.150Z,13.10
2019-04-05T17:25:49.647Z,12.83
2019-04-05T17:28:18.144Z,12.79
2019-04-05T17:30:47.288Z,12.86
2019-04-05T17:33:15.763Z,12.92
2019-04-05T17:35:44.277Z,12.77
2019-04-05T17:38:12.747Z,12.67
2019-04-05T17:40:41.590Z,12.55
2019-04-05T17:43:10.058Z,12.48
2019-04-05T17:45:38.571Z,12.51
2019-04-05T17:48:07.350Z,12.24
2019-04-05T17:50:35.839Z,12.16
2019-04-05T17:53:12.020Z,12.32
2019-04-05T17:55:34.660Z,12.33
2019-04-05T17:58:05.053Z,12.44
2019-04-05T18:00:33.539Z,12.46
2019-04-05T18:03:02.067Z,12.29
2019-04-05T18:05:30.556Z,12.26
2019-04-05T18:07:59.042Z,12.39
2019-04-05T18:10:27.520Z,12.55
2019-04-05T18:12:56.008Z,12.55
2019-04-05T18:15:24.575Z,12.27
2019-04-05T18:17:53.412Z,12.16
2019-04-05T18:20:21.872Z,12.04
2019-04-05T18:22:50.389Z,12.02
2019-04-05T18:25:18.916Z,12.02
2019-04-05T18:27:47.392Z,12.00
2019-04-05T18:30:16.081Z,12.00
2019-04-05T18:32:44.582Z,11.92
2019-04-05T18:35:13.358Z,11.92
2019-04-05T18:37:41.946Z,11.94
2019-04-05T18:40:11.034Z,11.90
2019-04-05T18:42:39.524Z,11.86
2019-04-05T18:45:07.988Z,11.87
2019-04-05T18:47:36.486Z,11.81
2019-04-05T18:50:05.364Z,11.71
2019-04-05T18:52:33.852Z,11.61
2019-04-05T18:55:02.702Z,11.58
2019-04-05T18:57:31.459Z,11.61
2019-04-05T18:59:59.978Z,10.72
2019-04-05T19:02:28.460Z,11.72
2019-04-05T19:04:56.965Z,11.69
2019-04-05T19:07:25.484Z,11.77
2019-04-05T19:09:53.977Z,11.69
2019-04-05T19:12:22.483Z,11.68
2019-04-05T19:14:51.477Z,11.70
2019-04-05T19:17:24.129Z,11.67
2019-04-05T19:19:50.190Z,11.67
2019-04-05T19:22:18.670Z,11.68
2019-04-05T19:24:47.176Z,11.60
2019-04-05T19:27:15.642Z,11.61
2019-04-05T19:29:44.114Z,11.68
2019-04-05T19:49:44.463Z,11.36
2019-04-05T19:52:12.953Z,11.48
2019-04-05T19:54:41.436Z,11.60
2019-04-05T19:57:09.976Z,11.52
2019-04-05T19:59:38.478Z,11.36
2019-04-05T20:02:07.104Z,11.34
2019-04-05T20:04:35.920Z,11.32
2019-04-05T20:07:04.728Z,11.29
2019-04-05T20:09:33.228Z,10.71
2019-04-05T20:12:01.701Z,11.22
2019-04-05T20:14:30.204Z,11.31
2019-04-05T20:16:58.715Z,11.42
2019-04-05T20:19:27.235Z,11.39
2019-04-05T20:21:55.919Z,11.47
2019-04-05T20:24:25.208Z,11.67
2019-04-05T20:26:53.707Z,11.51
2019-04-05T20:29:22.287Z,11.45
2019-04-05T20:31:50.827Z,11.45
2019-04-05T20:34:19.313Z,11.44
2019-04-05T20:36:47.838Z,11.44
2019-04-05T20:39:16.387Z,11.55
2019-04-05T20:41:45.125Z,11.49
2019-04-05T20:44:13.622Z,11.44
2019-04-05T20:46:42.116Z,11.58
2019-04-05T20:49:12.022Z,11.62
2019-04-05T20:51:40.560Z,11.65
2019-04-05T20:54:09.025Z,11.52
2019-04-05T20:56:37.561Z,11.34
2019-04-05T20:59:06.074Z,11.30
2019-04-05T21:01:34.613Z,11.65
2019-04-05T21:04:03.060Z,13.46
2019-04-05T21:06:31.557Z,14.41
2019-04-05T21:09:00.404Z,15.08
2019-04-05T21:11:28.874Z,15.19
2019-04-05T21:13:57.388Z,14.35
2019-04-05T21:16:26.154Z,13.22
2019-04-05T21:18:54.634Z,12.48
2019-04-05T21:21:23.472Z,12.07
2019-04-05T21:23:51.960Z,11.95
2019-04-05T21:26:20.460Z,11.71
2019-04-05T21:28:48.961Z,11.71
2019-04-05T21:31:17.472Z,11.81
2019-04-05T21:33:46.078Z,11.86
2019-04-05T21:36:14.578Z,11.88
2019-04-05T21:38:43.074Z,11.90
2019-04-05T21:41:13.193Z,11.79
2019-04-05T21:43:41.847Z,11.78
2019-04-05T21:46:10.349Z,11.77
2019-04-05T21:48:38.883Z,11.78
2019-04-05T21:51:07.386Z,11.77
2019-04-05T21:53:36.007Z,11.77
2019-04-05T21:56:04.575Z,11.64
2019-04-05T21:58:33.086Z,11.62
2019-04-05T22:01:05.174Z,11.64
2019-04-05T22:03:33.698Z,11.60
2019-04-05T22:06:02.206Z,11.58
2019-04-05T22:08:30.719Z,11.58
2019-04-05T22:10:59.181Z,11.57
2019-04-05T22:13:27.700Z,11.54
2019-04-05T22:15:56.177Z,11.55
2019-04-05T22:18:24.678Z,11.54
2019-04-05T22:20:53.423Z,11.52
2019-04-05T22:23:22.214Z,11.52
2019-04-05T22:25:50.753Z,11.51
2019-04-05T22:28:19.566Z,11.51
2019-04-05T22:30:48.078Z,11.48
2019-04-05T22:33:16.574Z,11.47
2019-04-05T22:35:45.085Z,11.46
2019-04-05T22:38:13.554Z,11.42
2019-04-05T22:40:42.060Z,11.38
2019-04-05T22:43:10.550Z,11.38
2019-04-05T22:45:39.358Z,11.35
2019-04-05T22:48:07.823Z,11.32
2019-04-05T22:50:36.357Z,11.31
2019-04-05T22:53:04.850Z,11.25
2019-04-05T22:55:33.331Z,11.25
2019-04-05T22:58:02.086Z,11.18
2019-04-05T23:00:30.581Z,11.16
2019-04-05T23:02:59.447Z,11.17
2019-04-05T23:05:27.929Z,11.15
2019-04-05T23:07:56.499Z,11.12
2019-04-05T23:10:25.024Z,11.10
2019-04-05T23:12:53.506Z,11.06
2019-04-05T23:15:22.029Z,11.04
2019-04-05T23:17:50.539Z,11.03
2019-04-05T23:20:19.359Z,11.00
2019-04-05T23:22:47.893Z,11.00
2019-04-05T23:25:21.747Z,11.01
2019-04-05T23:27:46.602Z,10.98
2019-04-05T23:30:15.099Z,10.93
2019-04-05T23:32:43.601Z,10.91
2019-04-05T23:35:12.092Z,10.87
2019-04-05T23:37:40.572Z,10.82
2019-04-05T23:40:09.168Z,10.82
2019-04-05T23:42:37.990Z,10.78
2019-04-05T23:45:06.552Z,10.75
2019-04-05T23:47:35.035Z,10.74
2019-04-05T23:50:03.548Z,10.71
2019-04-05T23:52:32.037Z,10.70
2019-04-05T23:55:00.510Z,10.66
2019-04-05T23:57:29.295Z,10.64
2019-04-05T23:59:57.755Z,10.62
